sensor_id;sensor_type;location;lat;lon;timestamp;P1;durP1;ratioP1;P2;durP2;ratioP2
3149;SDS011;32503;47.748;8.960;2024-01-27T00:00:11;6.20;;;2.30;;
3149;SDS011;32503;47.748;8.960;2024-01-27T00:02:40;2.80;;;2.60;;
3149;SDS011;32503;47.748;8.960;2024-01-27T00:05:07;2.67;;;1.97;;
3149;SDS011;32503;47.748;8.960;2024-01-27T00:07:35;2.87;;;2.67;;
3149;SDS011;32503;47.748;8.960;2024-01-27T00:10:02;2.23;;;2.13;;
3149;SDS011;32503;47.748;8.960;2024-01-27T00:12:30;2.67;;;2.40;;
3149;SDS011;32503;47.748;8.960;2024-01-27T00:14:57;2.60;;;2.50;;
3149;SDS011;32503;47.748;8.960;2024-01-27T00:17:26;2.80;;;2.60;;
3149;SDS011;32503;47.748;8.960;2024-01-27T00:19:53;2.33;;;2.13;;
3149;SDS011;32503;47.748;8.960;2024-01-27T00:22:20;2.67;;;2.47;;
3149;SDS011;32503;47.748;8.960;2024-01-27T00:24:47;2.57;;;2.37;;
3149;SDS011;32503;47.748;8.960;2024-01-27T00:27:14;2.43;;;2.30;;
3149;SDS011;32503;47.748;8.960;2024-01-27T00:29:41;2.60;;;2.40;;
3149;SDS011;32503;47.748;8.960;2024-01-27T00:32:08;3.40;;;2.10;;
3149;SDS011;32503;47.748;8.960;2024-01-27T00:34:36;2.47;;;2.03;;
3149;SDS011;32503;47.748;8.960;2024-01-27T00:37:03;4.73;;;2.90;;
3149;SDS011;32503;47.748;8.960;2024-01-27T00:39:31;2.80;;;2.60;;
3149;SDS011;32503;47.748;8.960;2024-01-27T00:41:58;2.73;;;2.53;;
3149;SDS011;32503;47.748;8.960;2024-01-27T00:44:26;2.20;;;2.10;;
3149;SDS011;32503;47.748;8.960;2024-01-27T00:46:53;2.77;;;2.67;;
3149;SDS011;32503;47.748;8.960;2024-01-27T00:49:20;2.13;;;2.03;;
3149;SDS011;32503;47.748;8.960;2024-01-27T00:51:48;2.67;;;2.47;;
3149;SDS011;32503;47.748;8.960;2024-01-27T00:54:15;2.50;;;2.30;;
3149;SDS011;32503;47.748;8.960;2024-01-27T00:56:42;2.27;;;2.17;;
3149;SDS011;32503;47.748;8.960;2024-01-27T00:59:09;4.77;;;2.87;;
3149;SDS011;32503;47.748;8.960;2024-01-27T01:01:36;2.67;;;2.47;;
3149;SDS011;32503;47.748;8.960;2024-01-27T01:04:03;4.77;;;4.40;;
3149;SDS011;32503;47.748;8.960;2024-01-27T01:06:30;2.57;;;2.37;;
3149;SDS011;32503;47.748;8.960;2024-01-27T01:08:59;2.70;;;2.57;;
3149;SDS011;32503;47.748;8.960;2024-01-27T01:11:25;2.93;;;2.57;;
3149;SDS011;32503;47.748;8.960;2024-01-27T01:13:52;4.33;;;2.77;;
3149;SDS011;32503;47.748;8.960;2024-01-27T01:16:19;7.17;;;2.37;;
3149;SDS011;32503;47.748;8.960;2024-01-27T01:18:46;2.70;;;2.50;;
3149;SDS011;32503;47.748;8.960;2024-01-27T01:21:13;5.70;;;2.20;;
3149;SDS011;32503;47.748;8.960;2024-01-27T01:23:40;2.43;;;2.33;;
3149;SDS011;32503;47.748;8.960;2024-01-27T01:26:09;2.40;;;2.20;;
3149;SDS011;32503;47.748;8.960;2024-01-27T01:28:36;2.83;;;2.73;;
3149;SDS011;32503;47.748;8.960;2024-01-27T01:31:05;2.17;;;2.07;;
3149;SDS011;32503;47.748;8.960;2024-01-27T01:33:33;3.17;;;2.77;;
3149;SDS011;32503;47.748;8.960;2024-01-27T01:36:00;5.50;;;3.07;;
3149;SDS011;32503;47.748;8.960;2024-01-27T01:38:27;2.30;;;2.20;;
3149;SDS011;32503;47.748;8.960;2024-01-27T01:40:54;2.77;;;2.57;;
3149;SDS011;32503;47.748;8.960;2024-01-27T01:43:23;2.13;;;2.03;;
3149;SDS011;32503;47.748;8.960;2024-01-27T01:45:50;2.43;;;2.23;;
3149;SDS011;32503;47.748;8.960;2024-01-27T01:48:18;3.30;;;2.17;;
3149;SDS011;32503;47.748;8.960;2024-01-27T01:50:46;2.03;;;1.93;;
3149;SDS011;32503;47.748;8.960;2024-01-27T01:53:13;2.20;;;2.10;;
3149;SDS011;32503;47.748;8.960;2024-01-27T01:55:41;2.80;;;2.13;;
3149;SDS011;32503;47.748;8.960;2024-01-27T01:58:08;1.90;;;1.80;;
3149;SDS011;32503;47.748;8.960;2024-01-27T02:00:38;2.10;;;1.90;;
3149;SDS011;32503;47.748;8.960;2024-01-27T02:03:09;2.33;;;2.13;;
3149;SDS011;32503;47.748;8.960;2024-01-27T02:05:37;3.70;;;2.00;;
3149;SDS011;32503;47.748;8.960;2024-01-27T02:08:06;3.40;;;2.40;;
3149;SDS011;32503;47.748;8.960;2024-01-27T02:10:33;2.90;;;2.33;;
3149;SDS011;32503;47.748;8.960;2024-01-27T02:13:14;2.50;;;2.40;;
3149;SDS011;32503;47.748;8.960;2024-01-27T02:15:46;2.17;;;2.07;;
3149;SDS011;32503;47.748;8.960;2024-01-27T02:18:13;2.20;;;2.00;;
3149;SDS011;32503;47.748;8.960;2024-01-27T02:20:41;2.00;;;1.80;;
3149;SDS011;32503;47.748;8.960;2024-01-27T02:23:08;2.60;;;1.80;;
3149;SDS011;32503;47.748;8.960;2024-01-27T02:25:36;2.20;;;1.80;;
3149;SDS011;32503;47.748;8.960;2024-01-27T02:28:04;3.40;;;2.00;;
3149;SDS011;32503;47.748;8.960;2024-01-27T02:30:31;1.73;;;1.63;;
3149;SDS011;32503;47.748;8.960;2024-01-27T02:32:58;4.70;;;1.80;;
3149;SDS011;32503;47.748;8.960;2024-01-27T02:37:38;2.20;;;2.10;;
3149;SDS011;32503;47.748;8.960;2024-01-27T02:40:06;2.70;;;2.50;;
3149;SDS011;32503;47.748;8.960;2024-01-27T02:42:34;2.10;;;2.00;;
3149;SDS011;32503;47.748;8.960;2024-01-27T02:45:02;2.63;;;2.50;;
3149;SDS011;32503;47.748;8.960;2024-01-27T02:47:29;3.60;;;2.50;;
3149;SDS011;32503;47.748;8.960;2024-01-27T02:49:56;2.07;;;1.97;;
3149;SDS011;32503;47.748;8.960;2024-01-27T02:52:23;2.10;;;2.00;;
3149;SDS011;32503;47.748;8.960;2024-01-27T02:54:52;2.10;;;2.00;;
3149;SDS011;32503;47.748;8.960;2024-01-27T02:57:19;2.30;;;2.20;;
3149;SDS011;32503;47.748;8.960;2024-01-27T02:59:46;2.57;;;2.47;;
3149;SDS011;32503;47.748;8.960;2024-01-27T03:02:13;2.03;;;1.93;;
3149;SDS011;32503;47.748;8.960;2024-01-27T03:04:40;3.10;;;2.60;;
3149;SDS011;32503;47.748;8.960;2024-01-27T03:07:07;4.23;;;1.80;;
3149;SDS011;32503;47.748;8.960;2024-01-27T03:09:35;5.20;;;2.10;;
3149;SDS011;32503;47.748;8.960;2024-01-27T03:12:04;2.37;;;2.13;;
3149;SDS011;32503;47.748;8.960;2024-01-27T03:14:32;2.83;;;2.30;;
3149;SDS011;32503;47.748;8.960;2024-01-27T03:16:59;2.80;;;2.60;;
3149;SDS011;32503;47.748;8.960;2024-01-27T03:19:26;2.73;;;2.50;;
3149;SDS011;32503;47.748;8.960;2024-01-27T03:21:53;2.60;;;2.40;;
3149;SDS011;32503;47.748;8.960;2024-01-27T03:24:20;2.70;;;2.50;;
3149;SDS011;32503;47.748;8.960;2024-01-27T03:26:47;2.40;;;2.30;;
3149;SDS011;32503;47.748;8.960;2024-01-27T03:29:15;2.60;;;2.03;;
3149;SDS011;32503;47.748;8.960;2024-01-27T03:31:42;21.67;;;3.27;;
3149;SDS011;32503;47.748;8.960;2024-01-27T03:34:09;2.20;;;2.10;;
3149;SDS011;32503;47.748;8.960;2024-01-27T03:36:36;2.40;;;2.30;;
3149;SDS011;32503;47.748;8.960;2024-01-27T03:39:03;2.50;;;2.10;;
3149;SDS011;32503;47.748;8.960;2024-01-27T03:41:32;2.20;;;2.10;;
3149;SDS011;32503;47.748;8.960;2024-01-27T03:43:59;2.10;;;2.00;;
3149;SDS011;32503;47.748;8.960;2024-01-27T03:46:27;2.37;;;2.17;;
3149;SDS011;32503;47.748;8.960;2024-01-27T03:48:55;2.37;;;2.27;;
3149;SDS011;32503;47.748;8.960;2024-01-27T03:51:22;2.10;;;2.00;;
3149;SDS011;32503;47.748;8.960;2024-01-27T03:53:50;2.73;;;2.63;;
3149;SDS011;32503;47.748;8.960;2024-01-27T03:56:17;3.50;;;2.47;;
3149;SDS011;32503;47.748;8.960;2024-01-27T03:58:44;3.10;;;2.60;;
3149;SDS011;32503;47.748;8.960;2024-01-27T04:01:11;2.93;;;2.70;;
3149;SDS011;32503;47.748;8.960;2024-01-27T04:03:40;2.60;;;2.30;;
3149;SDS011;32503;47.748;8.960;2024-01-27T04:06:07;4.67;;;2.40;;
3149;SDS011;32503;47.748;8.960;2024-01-27T04:08:34;2.13;;;1.93;;
3149;SDS011;32503;47.748;8.960;2024-01-27T04:11:01;2.57;;;2.47;;
3149;SDS011;32503;47.748;8.960;2024-01-27T04:13:28;2.50;;;2.40;;
3149;SDS011;32503;47.748;8.960;2024-01-27T04:15:55;2.50;;;2.40;;
3149;SDS011;32503;47.748;8.960;2024-01-27T04:18:24;2.57;;;2.47;;
3149;SDS011;32503;47.748;8.960;2024-01-27T04:20:52;2.53;;;2.43;;
3149;SDS011;32503;47.748;8.960;2024-01-27T04:23:19;3.27;;;2.97;;
3149;SDS011;32503;47.748;8.960;2024-01-27T04:25:46;2.67;;;2.47;;
3149;SDS011;32503;47.748;8.960;2024-01-27T04:28:13;3.17;;;2.77;;
3149;SDS011;32503;47.748;8.960;2024-01-27T04:30:40;3.40;;;2.13;;
3149;SDS011;32503;47.748;8.960;2024-01-27T04:33:07;2.73;;;2.53;;
3149;SDS011;32503;47.748;8.960;2024-01-27T04:35:34;2.70;;;2.60;;
3149;SDS011;32503;47.748;8.960;2024-01-27T04:38:03;2.50;;;2.40;;
3149;SDS011;32503;47.748;8.960;2024-01-27T04:40:30;2.57;;;2.40;;
3149;SDS011;32503;47.748;8.960;2024-01-27T04:42:58;2.50;;;2.30;;
3149;SDS011;32503;47.748;8.960;2024-01-27T04:45:25;2.90;;;2.70;;
3149;SDS011;32503;47.748;8.960;2024-01-27T04:47:52;3.63;;;2.67;;
3149;SDS011;32503;47.748;8.960;2024-01-27T04:50:19;2.03;;;1.93;;
3149;SDS011;32503;47.748;8.960;2024-01-27T04:52:46;2.97;;;2.77;;
3149;SDS011;32503;47.748;8.960;2024-01-27T04:55:15;2.60;;;2.50;;
3149;SDS011;32503;47.748;8.960;2024-01-27T04:57:42;2.83;;;2.57;;
3149;SDS011;32503;47.748;8.960;2024-01-27T05:00:09;2.30;;;2.20;;
3149;SDS011;32503;47.748;8.960;2024-01-27T05:02:39;3.70;;;3.50;;
3149;SDS011;32503;47.748;8.960;2024-01-27T05:05:06;2.20;;;2.10;;
3149;SDS011;32503;47.748;8.960;2024-01-27T05:07:33;2.20;;;2.10;;
3149;SDS011;32503;47.748;8.960;2024-01-27T05:10:00;4.00;;;3.20;;
3149;SDS011;32503;47.748;8.960;2024-01-27T05:12:29;2.70;;;2.50;;
3149;SDS011;32503;47.748;8.960;2024-01-27T05:14:56;2.83;;;2.63;;
3149;SDS011;32503;47.748;8.960;2024-01-27T05:17:23;4.13;;;2.80;;
3149;SDS011;32503;47.748;8.960;2024-01-27T05:19:50;2.53;;;2.20;;
3149;SDS011;32503;47.748;8.960;2024-01-27T05:22:17;3.07;;;2.87;;
3149;SDS011;32503;47.748;8.960;2024-01-27T05:24:44;2.70;;;2.60;;
3149;SDS011;32503;47.748;8.960;2024-01-27T05:27:11;3.50;;;3.20;;
3149;SDS011;32503;47.748;8.960;2024-01-27T05:29:40;3.63;;;3.30;;
3149;SDS011;32503;47.748;8.960;2024-01-27T05:32:07;3.07;;;2.87;;
3149;SDS011;32503;47.748;8.960;2024-01-27T05:34:34;3.47;;;3.27;;
3149;SDS011;32503;47.748;8.960;2024-01-27T05:37:01;5.53;;;2.90;;
3149;SDS011;32503;47.748;8.960;2024-01-27T05:39:28;4.30;;;3.60;;
3149;SDS011;32503;47.748;8.960;2024-01-27T05:41:57;4.07;;;3.63;;
3149;SDS011;32503;47.748;8.960;2024-01-27T05:44:24;9.47;;;4.73;;
3149;SDS011;32503;47.748;8.960;2024-01-27T05:46:53;4.00;;;3.70;;
3149;SDS011;32503;47.748;8.960;2024-01-27T05:49:20;4.07;;;3.80;;
3149;SDS011;32503;47.748;8.960;2024-01-27T05:51:47;3.87;;;3.60;;
3149;SDS011;32503;47.748;8.960;2024-01-27T05:54:15;3.20;;;3.00;;
3149;SDS011;32503;47.748;8.960;2024-01-27T05:56:42;3.67;;;2.97;;
3149;SDS011;32503;47.748;8.960;2024-01-27T05:59:09;3.40;;;3.20;;
3149;SDS011;32503;47.748;8.960;2024-01-27T06:01:36;3.67;;;3.37;;
3149;SDS011;32503;47.748;8.960;2024-01-27T06:04:07;2.63;;;2.43;;
3149;SDS011;32503;47.748;8.960;2024-01-27T06:06:34;3.43;;;3.10;;
3149;SDS011;32503;47.748;8.960;2024-01-27T06:09:04;2.73;;;2.63;;
3149;SDS011;32503;47.748;8.960;2024-01-27T06:11:35;3.23;;;3.00;;
3149;SDS011;32503;47.748;8.960;2024-01-27T06:14:02;3.20;;;3.00;;
3149;SDS011;32503;47.748;8.960;2024-01-27T06:16:29;2.87;;;2.67;;
3149;SDS011;32503;47.748;8.960;2024-01-27T06:18:56;4.90;;;4.40;;
3149;SDS011;32503;47.748;8.960;2024-01-27T06:21:24;4.30;;;3.87;;
3149;SDS011;32503;47.748;8.960;2024-01-27T06:23:52;12.20;;;7.60;;
3149;SDS011;32503;47.748;8.960;2024-01-27T06:26:19;6.77;;;6.17;;
3149;SDS011;32503;47.748;8.960;2024-01-27T06:28:46;7.37;;;5.47;;
3149;SDS011;32503;47.748;8.960;2024-01-27T06:31:15;5.90;;;5.33;;
3149;SDS011;32503;47.748;8.960;2024-01-27T06:33:42;6.23;;;5.60;;
3149;SDS011;32503;47.748;8.960;2024-01-27T06:36:09;7.37;;;5.23;;
3149;SDS011;32503;47.748;8.960;2024-01-27T06:38:38;4.30;;;3.90;;
3149;SDS011;32503;47.748;8.960;2024-01-27T06:41:05;4.87;;;4.47;;
3149;SDS011;32503;47.748;8.960;2024-01-27T06:43:32;5.63;;;5.10;;
3149;SDS011;32503;47.748;8.960;2024-01-27T06:45:59;4.03;;;3.83;;
3149;SDS011;32503;47.748;8.960;2024-01-27T06:48:26;5.47;;;5.07;;
3149;SDS011;32503;47.748;8.960;2024-01-27T06:50:53;4.77;;;4.37;;
3149;SDS011;32503;47.748;8.960;2024-01-27T06:53:20;5.20;;;4.70;;
3149;SDS011;32503;47.748;8.960;2024-01-27T06:55:48;7.23;;;6.53;;
3149;SDS011;32503;47.748;8.960;2024-01-27T06:58:16;17.77;;;7.80;;
3149;SDS011;32503;47.748;8.960;2024-01-27T07:00:42;6.60;;;6.00;;
3149;SDS011;32503;47.748;8.960;2024-01-27T07:03:10;6.17;;;5.77;;
3149;SDS011;32503;47.748;8.960;2024-01-27T07:05:37;8.37;;;5.30;;
3149;SDS011;32503;47.748;8.960;2024-01-27T07:08:06;13.20;;;8.60;;
3149;SDS011;32503;47.748;8.960;2024-01-27T07:10:36;13.03;;;8.73;;
3149;SDS011;32503;47.748;8.960;2024-01-27T07:13:04;23.33;;;13.07;;
3149;SDS011;32503;47.748;8.960;2024-01-27T07:15:32;21.53;;;12.47;;
3149;SDS011;32503;47.748;8.960;2024-01-27T07:17:59;11.73;;;7.97;;
3149;SDS011;32503;47.748;8.960;2024-01-27T07:20:26;6.47;;;5.77;;
3149;SDS011;32503;47.748;8.960;2024-01-27T07:22:54;6.30;;;5.53;;
3149;SDS011;32503;47.748;8.960;2024-01-27T07:25:21;8.13;;;6.97;;
3149;SDS011;32503;47.748;8.960;2024-01-27T07:27:48;8.30;;;7.50;;
3149;SDS011;32503;47.748;8.960;2024-01-27T07:30:16;7.17;;;6.27;;
3149;SDS011;32503;47.748;8.960;2024-01-27T07:32:47;8.37;;;6.80;;
3149;SDS011;32503;47.748;8.960;2024-01-27T07:35:15;5.67;;;5.13;;
3149;SDS011;32503;47.748;8.960;2024-01-27T07:37:42;5.47;;;5.03;;
3149;SDS011;32503;47.748;8.960;2024-01-27T07:40:10;5.97;;;5.50;;
3149;SDS011;32503;47.748;8.960;2024-01-27T07:42:38;5.60;;;5.10;;
3149;SDS011;32503;47.748;8.960;2024-01-27T07:45:06;7.60;;;7.00;;
3149;SDS011;32503;47.748;8.960;2024-01-27T07:47:35;7.00;;;6.40;;
3149;SDS011;32503;47.748;8.960;2024-01-27T07:50:02;6.80;;;6.13;;
3149;SDS011;32503;47.748;8.960;2024-01-27T07:52:30;6.90;;;6.30;;
3149;SDS011;32503;47.748;8.960;2024-01-27T07:54:57;8.37;;;7.77;;
3149;SDS011;32503;47.748;8.960;2024-01-27T07:57:24;9.13;;;8.33;;
3149;SDS011;32503;47.748;8.960;2024-01-27T07:59:51;5.77;;;5.37;;
3149;SDS011;32503;47.748;8.960;2024-01-27T08:02:18;5.80;;;5.30;;
3149;SDS011;32503;47.748;8.960;2024-01-27T08:04:47;6.33;;;5.77;;
3149;SDS011;32503;47.748;8.960;2024-01-27T08:07:14;7.90;;;7.30;;
3149;SDS011;32503;47.748;8.960;2024-01-27T08:09:41;9.90;;;8.63;;
3149;SDS011;32503;47.748;8.960;2024-01-27T08:12:08;7.60;;;6.90;;
3149;SDS011;32503;47.748;8.960;2024-01-27T08:14:35;6.17;;;5.60;;
3149;SDS011;32503;47.748;8.960;2024-01-27T08:17:03;5.67;;;5.17;;
3149;SDS011;32503;47.748;8.960;2024-01-27T08:19:30;4.60;;;4.40;;
3149;SDS011;32503;47.748;8.960;2024-01-27T08:21:59;6.93;;;6.33;;
3149;SDS011;32503;47.748;8.960;2024-01-27T08:24:26;9.37;;;8.67;;
3149;SDS011;32503;47.748;8.960;2024-01-27T08:26:53;6.70;;;6.03;;
3149;SDS011;32503;47.748;8.960;2024-01-27T08:29:20;7.20;;;6.67;;
3149;SDS011;32503;47.748;8.960;2024-01-27T08:31:47;15.23;;;13.27;;
3149;SDS011;32503;47.748;8.960;2024-01-27T08:34:14;10.17;;;9.20;;
3149;SDS011;32503;47.748;8.960;2024-01-27T08:36:41;7.83;;;7.23;;
3149;SDS011;32503;47.748;8.960;2024-01-27T08:39:10;6.00;;;5.60;;
3149;SDS011;32503;47.748;8.960;2024-01-27T08:41:37;7.47;;;6.90;;
3149;SDS011;32503;47.748;8.960;2024-01-27T08:44:04;5.97;;;5.47;;
3149;SDS011;32503;47.748;8.960;2024-01-27T08:46:31;7.30;;;6.70;;
3149;SDS011;32503;47.748;8.960;2024-01-27T08:48:58;6.97;;;6.57;;
3149;SDS011;32503;47.748;8.960;2024-01-27T08:51:25;8.93;;;8.00;;
3149;SDS011;32503;47.748;8.960;2024-01-27T08:53:52;6.43;;;6.00;;
3149;SDS011;32503;47.748;8.960;2024-01-27T08:56:24;6.20;;;5.80;;
3149;SDS011;32503;47.748;8.960;2024-01-27T08:58:51;5.97;;;5.47;;
3149;SDS011;32503;47.748;8.960;2024-01-27T09:01:18;5.60;;;5.20;;
3149;SDS011;32503;47.748;8.960;2024-01-27T09:03:45;5.53;;;5.13;;
3149;SDS011;32503;47.748;8.960;2024-01-27T09:06:12;20.10;;;12.60;;
3149;SDS011;32503;47.748;8.960;2024-01-27T09:08:39;12.20;;;9.03;;
3149;SDS011;32503;47.748;8.960;2024-01-27T09:11:06;8.13;;;7.30;;
3149;SDS011;32503;47.748;8.960;2024-01-27T09:13:35;6.53;;;6.03;;
3149;SDS011;32503;47.748;8.960;2024-01-27T09:16:03;5.53;;;4.90;;
3149;SDS011;32503;47.748;8.960;2024-01-27T09:18:30;5.57;;;5.17;;
3149;SDS011;32503;47.748;8.960;2024-01-27T09:20:57;7.17;;;5.30;;
3149;SDS011;32503;47.748;8.960;2024-01-27T09:23:24;6.10;;;5.50;;
3149;SDS011;32503;47.748;8.960;2024-01-27T09:25:51;3.87;;;3.67;;
3149;SDS011;32503;47.748;8.960;2024-01-27T09:28:18;4.23;;;3.83;;
3149;SDS011;32503;47.748;8.960;2024-01-27T09:30:46;5.23;;;4.80;;
3149;SDS011;32503;47.748;8.960;2024-01-27T09:33:14;5.50;;;5.10;;
3149;SDS011;32503;47.748;8.960;2024-01-27T09:35:42;6.30;;;5.80;;
3149;SDS011;32503;47.748;8.960;2024-01-27T09:38:09;4.97;;;4.53;;
3149;SDS011;32503;47.748;8.960;2024-01-27T09:40:37;6.87;;;5.30;;
3149;SDS011;32503;47.748;8.960;2024-01-27T09:43:05;8.83;;;8.40;;
3149;SDS011;32503;47.748;8.960;2024-01-27T09:45:32;9.47;;;7.83;;
3149;SDS011;32503;47.748;8.960;2024-01-27T09:48:02;5.70;;;5.30;;
3149;SDS011;32503;47.748;8.960;2024-01-27T09:50:31;7.30;;;6.07;;
3149;SDS011;32503;47.748;8.960;2024-01-27T09:53:00;5.60;;;5.20;;
3149;SDS011;32503;47.748;8.960;2024-01-27T09:55:27;6.10;;;5.67;;
3149;SDS011;32503;47.748;8.960;2024-01-27T09:57:54;5.90;;;5.40;;
3149;SDS011;32503;47.748;8.960;2024-01-27T10:00:21;5.33;;;5.03;;
3149;SDS011;32503;47.748;8.960;2024-01-27T10:02:49;5.80;;;5.40;;
3149;SDS011;32503;47.748;8.960;2024-01-27T10:05:18;7.57;;;6.10;;
3149;SDS011;32503;47.748;8.960;2024-01-27T10:07:46;7.00;;;6.33;;
3149;SDS011;32503;47.748;8.960;2024-01-27T10:10:14;6.37;;;5.50;;
3149;SDS011;32503;47.748;8.960;2024-01-27T10:12:41;6.97;;;6.47;;
3149;SDS011;32503;47.748;8.960;2024-01-27T10:15:18;5.57;;;5.27;;
3149;SDS011;32503;47.748;8.960;2024-01-27T10:17:46;6.53;;;5.93;;
3149;SDS011;32503;47.748;8.960;2024-01-27T10:20:13;5.70;;;5.30;;
3149;SDS011;32503;47.748;8.960;2024-01-27T10:22:45;6.33;;;5.93;;
3149;SDS011;32503;47.748;8.960;2024-01-27T10:25:12;6.73;;;6.17;;
3149;SDS011;32503;47.748;8.960;2024-01-27T10:27:39;5.10;;;4.80;;
3149;SDS011;32503;47.748;8.960;2024-01-27T10:30:07;6.57;;;5.90;;
3149;SDS011;32503;47.748;8.960;2024-01-27T10:32:43;7.53;;;5.30;;
3149;SDS011;32503;47.748;8.960;2024-01-27T10:35:21;6.60;;;5.30;;
3149;SDS011;32503;47.748;8.960;2024-01-27T10:37:52;7.00;;;5.10;;
3149;SDS011;32503;47.748;8.960;2024-01-27T10:40:20;5.83;;;4.53;;
3149;SDS011;32503;47.748;8.960;2024-01-27T10:42:51;4.83;;;4.30;;
3149;SDS011;32503;47.748;8.960;2024-01-27T10:45:34;4.90;;;4.60;;
3149;SDS011;32503;47.748;8.960;2024-01-27T10:48:03;6.87;;;4.57;;
3149;SDS011;32503;47.748;8.960;2024-01-27T10:50:34;5.27;;;4.80;;
3149;SDS011;32503;47.748;8.960;2024-01-27T10:53:04;5.17;;;4.57;;
3149;SDS011;32503;47.748;8.960;2024-01-27T10:55:36;5.00;;;4.70;;
3149;SDS011;32503;47.748;8.960;2024-01-27T10:58:04;5.60;;;5.20;;
3149;SDS011;32503;47.748;8.960;2024-01-27T11:00:31;5.10;;;4.53;;
3149;SDS011;32503;47.748;8.960;2024-01-27T11:03:01;5.53;;;4.70;;
3149;SDS011;32503;47.748;8.960;2024-01-27T11:05:30;5.50;;;5.10;;
3149;SDS011;32503;47.748;8.960;2024-01-27T11:07:59;6.00;;;4.90;;
3149;SDS011;32503;47.748;8.960;2024-01-27T11:10:29;4.23;;;3.93;;
3149;SDS011;32503;47.748;8.960;2024-01-27T11:13:01;5.97;;;4.50;;
3149;SDS011;32503;47.748;8.960;2024-01-27T11:15:30;3.77;;;3.47;;
3149;SDS011;32503;47.748;8.960;2024-01-27T11:17:57;3.70;;;3.40;;
3149;SDS011;32503;47.748;8.960;2024-01-27T11:20:27;2.80;;;2.50;;
3149;SDS011;32503;47.748;8.960;2024-01-27T11:23:06;3.93;;;2.90;;
3149;SDS011;32503;47.748;8.960;2024-01-27T11:25:37;3.17;;;2.97;;
3149;SDS011;32503;47.748;8.960;2024-01-27T11:28:10;3.07;;;2.87;;
3149;SDS011;32503;47.748;8.960;2024-01-27T11:30:39;5.37;;;3.33;;
3149;SDS011;32503;47.748;8.960;2024-01-27T11:33:11;6.60;;;3.17;;
3149;SDS011;32503;47.748;8.960;2024-01-27T11:35:38;4.07;;;3.20;;
3149;SDS011;32503;47.748;8.960;2024-01-27T11:38:05;5.07;;;3.23;;
3149;SDS011;32503;47.748;8.960;2024-01-27T11:40:32;3.40;;;2.67;;
3149;SDS011;32503;47.748;8.960;2024-01-27T11:43:01;3.90;;;2.90;;
3149;SDS011;32503;47.748;8.960;2024-01-27T11:45:28;3.30;;;3.00;;
3149;SDS011;32503;47.748;8.960;2024-01-27T11:47:57;3.73;;;3.40;;
3149;SDS011;32503;47.748;8.960;2024-01-27T11:50:26;3.80;;;3.07;;
3149;SDS011;32503;47.748;8.960;2024-01-27T11:52:53;3.20;;;2.90;;
3149;SDS011;32503;47.748;8.960;2024-01-27T11:55:20;3.47;;;3.23;;
3149;SDS011;32503;47.748;8.960;2024-01-27T11:57:47;2.73;;;2.53;;
3149;SDS011;32503;47.748;8.960;2024-01-27T12:00:16;3.27;;;2.97;;
3149;SDS011;32503;47.748;8.960;2024-01-27T12:02:43;2.90;;;2.70;;
3149;SDS011;32503;47.748;8.960;2024-01-27T12:05:10;3.47;;;3.17;;
3149;SDS011;32503;47.748;8.960;2024-01-27T12:07:38;4.70;;;3.17;;
3149;SDS011;32503;47.748;8.960;2024-01-27T12:10:05;3.20;;;3.00;;
3149;SDS011;32503;47.748;8.960;2024-01-27T12:12:35;3.37;;;3.17;;
3149;SDS011;32503;47.748;8.960;2024-01-27T12:15:02;3.00;;;2.80;;
3149;SDS011;32503;47.748;8.960;2024-01-27T12:17:32;2.50;;;2.40;;
3149;SDS011;32503;47.748;8.960;2024-01-27T12:19:59;2.70;;;2.50;;
3149;SDS011;32503;47.748;8.960;2024-01-27T12:22:27;4.50;;;2.87;;
3149;SDS011;32503;47.748;8.960;2024-01-27T12:24:56;2.80;;;2.60;;
3149;SDS011;32503;47.748;8.960;2024-01-27T12:27:35;3.77;;;2.73;;
3149;SDS011;32503;47.748;8.960;2024-01-27T12:30:03;3.00;;;2.77;;
3149;SDS011;32503;47.748;8.960;2024-01-27T12:32:33;3.80;;;3.40;;
3149;SDS011;32503;47.748;8.960;2024-01-27T12:35:04;3.00;;;2.80;;
3149;SDS011;32503;47.748;8.960;2024-01-27T12:37:31;3.87;;;3.37;;
3149;SDS011;32503;47.748;8.960;2024-01-27T12:40:00;3.60;;;3.40;;
3149;SDS011;32503;47.748;8.960;2024-01-27T12:42:27;4.13;;;3.70;;
3149;SDS011;32503;47.748;8.960;2024-01-27T12:44:54;4.10;;;3.73;;
3149;SDS011;32503;47.748;8.960;2024-01-27T12:47:21;3.63;;;3.40;;
3149;SDS011;32503;47.748;8.960;2024-01-27T12:49:49;3.53;;;3.33;;
3149;SDS011;32503;47.748;8.960;2024-01-27T12:52:16;4.27;;;3.97;;
3149;SDS011;32503;47.748;8.960;2024-01-27T12:54:43;5.87;;;3.60;;
3149;SDS011;32503;47.748;8.960;2024-01-27T12:57:10;3.30;;;3.00;;
3149;SDS011;32503;47.748;8.960;2024-01-27T12:59:38;3.37;;;3.10;;
3149;SDS011;32503;47.748;8.960;2024-01-27T13:02:05;3.57;;;3.27;;
3149;SDS011;32503;47.748;8.960;2024-01-27T13:04:33;3.70;;;3.40;;
3149;SDS011;32503;47.748;8.960;2024-01-27T13:07:01;3.17;;;2.87;;
3149;SDS011;32503;47.748;8.960;2024-01-27T13:09:28;4.73;;;3.37;;
3149;SDS011;32503;47.748;8.960;2024-01-27T13:11:56;6.20;;;3.80;;
3149;SDS011;32503;47.748;8.960;2024-01-27T13:14:23;4.10;;;3.50;;
3149;SDS011;32503;47.748;8.960;2024-01-27T13:16:50;3.00;;;2.90;;
3149;SDS011;32503;47.748;8.960;2024-01-27T13:19:18;6.50;;;3.00;;
3149;SDS011;32503;47.748;8.960;2024-01-27T13:21:46;3.50;;;3.20;;
3149;SDS011;32503;47.748;8.960;2024-01-27T13:24:14;3.10;;;2.93;;
3149;SDS011;32503;47.748;8.960;2024-01-27T13:26:41;3.17;;;2.97;;
3149;SDS011;32503;47.748;8.960;2024-01-27T13:29:08;4.00;;;3.33;;
3149;SDS011;32503;47.748;8.960;2024-01-27T13:31:35;3.03;;;2.67;;
3149;SDS011;32503;47.748;8.960;2024-01-27T13:34:02;3.90;;;1.97;;
3149;SDS011;32503;47.748;8.960;2024-01-27T13:36:30;2.80;;;2.10;;
3149;SDS011;32503;47.748;8.960;2024-01-27T13:38:58;2.50;;;2.30;;
3149;SDS011;32503;47.748;8.960;2024-01-27T13:41:27;3.23;;;2.93;;
3149;SDS011;32503;47.748;8.960;2024-01-27T13:43:55;2.70;;;2.60;;
3149;SDS011;32503;47.748;8.960;2024-01-27T13:46:22;3.47;;;3.17;;
3149;SDS011;32503;47.748;8.960;2024-01-27T13:48:49;2.67;;;2.57;;
3149;SDS011;32503;47.748;8.960;2024-01-27T13:51:17;7.80;;;3.17;;
3149;SDS011;32503;47.748;8.960;2024-01-27T13:53:44;2.63;;;2.53;;
3149;SDS011;32503;47.748;8.960;2024-01-27T13:56:11;2.37;;;2.10;;
3149;SDS011;32503;47.748;8.960;2024-01-27T13:58:40;2.60;;;2.20;;
3149;SDS011;32503;47.748;8.960;2024-01-27T14:01:07;3.53;;;3.23;;
3149;SDS011;32503;47.748;8.960;2024-01-27T14:03:34;3.10;;;2.43;;
3149;SDS011;32503;47.748;8.960;2024-01-27T14:06:02;2.17;;;2.07;;
3149;SDS011;32503;47.748;8.960;2024-01-27T14:08:29;4.97;;;3.20;;
3149;SDS011;32503;47.748;8.960;2024-01-27T14:10:57;2.93;;;2.73;;
3149;SDS011;32503;47.748;8.960;2024-01-27T14:13:24;9.90;;;3.17;;
3149;SDS011;32503;47.748;8.960;2024-01-27T14:15:52;5.53;;;4.00;;
3149;SDS011;32503;47.748;8.960;2024-01-27T14:18:19;2.50;;;2.40;;
3149;SDS011;32503;47.748;8.960;2024-01-27T14:20:46;2.97;;;2.73;;
3149;SDS011;32503;47.748;8.960;2024-01-27T14:23:14;3.23;;;2.93;;
3149;SDS011;32503;47.748;8.960;2024-01-27T14:25:41;2.87;;;2.67;;
3149;SDS011;32503;47.748;8.960;2024-01-27T14:28:08;2.93;;;2.60;;
3149;SDS011;32503;47.748;8.960;2024-01-27T14:30:36;3.80;;;3.60;;
3149;SDS011;32503;47.748;8.960;2024-01-27T14:33:06;7.63;;;5.40;;
3149;SDS011;32503;47.748;8.960;2024-01-27T14:35:33;5.53;;;3.93;;
3149;SDS011;32503;47.748;8.960;2024-01-27T14:38:00;5.03;;;3.90;;
3149;SDS011;32503;47.748;8.960;2024-01-27T14:40:27;3.50;;;3.20;;
3149;SDS011;32503;47.748;8.960;2024-01-27T14:42:56;2.80;;;2.60;;
3149;SDS011;32503;47.748;8.960;2024-01-27T14:45:23;3.17;;;2.87;;
3149;SDS011;32503;47.748;8.960;2024-01-27T14:47:50;3.13;;;2.80;;
3149;SDS011;32503;47.748;8.960;2024-01-27T14:50:20;3.67;;;3.37;;
3149;SDS011;32503;47.748;8.960;2024-01-27T14:52:48;3.27;;;3.00;;
3149;SDS011;32503;47.748;8.960;2024-01-27T14:55:16;3.40;;;3.20;;
3149;SDS011;32503;47.748;8.960;2024-01-27T14:57:43;3.13;;;2.93;;
3149;SDS011;32503;47.748;8.960;2024-01-27T15:00:11;3.30;;;3.03;;
3149;SDS011;32503;47.748;8.960;2024-01-27T15:02:40;4.70;;;4.30;;
3149;SDS011;32503;47.748;8.960;2024-01-27T15:05:09;3.60;;;3.30;;